Time;durP1;ratioP1;P1;durP2;ratioP2;P2;SDS_P1;SDS_P2;PMS_P1;PMS_P2;Temp;Humidity;BMP_temperature;BMP_pressure;BME280_temperature;BME280_humidity;BME280_pressure;Samples;Min_cycle;Max_cycle;Signal;HPM_P1;HPM_P2
2023/06/09 00:00:32;;;;;;;7.03;4.43;;;;;;;18.99;90.84;94456.25;5068832;28;20199;-46
2023/06/09 00:02:59;;;;;;;9.10;5.00;;;;;;;18.95;90.91;94462.81;5068779;28;20222;-43
2023/06/09 00:05:32;;;;;;;10.53;4.97;;;;;;;18.93;90.70;94456.25;5071466;28;20650;-43
2023/06/09 00:08:00;;;;;;;8.97;4.87;;;;;;;18.95;90.79;94464.59;5072631;28;20678;-44
2023/06/09 00:10:27;;;;;;;11.90;5.43;;;;;;;18.91;90.77;94456.44;5072394;28;20244;-44
2023/06/09 00:12:54;;;;;;;8.70;5.17;;;;;;;18.89;90.62;94455.03;5072559;28;20198;-44
2023/06/09 00:15:21;;;;;;;8.47;4.60;;;;;;;18.83;90.96;94455.81;5071477;28;20183;-42
2023/06/09 00:17:48;;;;;;;10.37;4.93;;;;;;;18.78;90.99;94451.19;5072360;28;20194;-44
2023/06/09 00:20:15;;;;;;;7.53;4.70;;;;;;;18.75;90.85;94454.19;5072141;28;20288;-45
2023/06/09 00:22:44;;;;;;;7.10;4.90;;;;;;;18.65;90.78;94441.56;5071845;28;20268;-43
2023/06/09 00:25:13;;;;;;;7.60;5.23;;;;;;;18.72;90.77;94452.78;5072342;28;20676;-44
2023/06/09 00:27:40;;;;;;;5.90;4.97;;;;;;;18.67;90.76;94460.28;5072182;28;20197;-46
2023/06/09 00:30:08;;;;;;;10.30;4.90;;;;;;;18.62;91.01;94454.09;5072170;28;20876;-44
2023/06/09 00:32:35;;;;;;;13.27;5.10;;;;;;;18.64;91.22;94455.50;5072427;28;20273;-44
2023/06/09 00:35:02;;;;;;;9.93;4.47;;;;;;;18.53;91.29;94450.88;5071398;28;20550;-44
2023/06/09 00:37:29;;;;;;;15.17;5.20;;;;;;;18.50;91.59;94446.06;5071667;28;20194;-45
2023/06/09 00:39:56;;;;;;;11.27;5.33;;;;;;;18.43;91.75;94445.22;5071677;28;20577;-44
2023/06/09 00:42:24;;;;;;;7.00;5.10;;;;;;;18.44;91.62;94452.03;5071842;28;20191;-45
2023/06/09 00:44:51;;;;;;;5.83;4.60;;;;;;;18.43;91.54;94443.44;5071343;28;20233;-45
2023/06/09 00:47:18;;;;;;;9.33;4.40;;;;;;;18.00;91.62;94385.88;5071481;28;20185;-44
2023/06/09 00:49:45;;;;;;;9.57;4.97;;;;;;;18.37;91.60;94448.59;5071800;28;20194;-44
2023/06/09 00:52:12;;;;;;;5.10;4.60;;;;;;;18.32;91.87;94443.19;5071720;28;20256;-44
2023/06/09 00:54:39;;;;;;;7.27;5.03;;;;;;;18.32;91.71;94456.94;5071381;28;20194;-44
2023/06/09 00:57:07;;;;;;;7.87;5.40;;;;;;;18.29;91.88;94454.72;5071136;28;20190;-45
2023/06/09 00:59:36;;;;;;;11.07;5.17;;;;;;;18.20;92.19;94454.09;5071613;28;20719;-45
2023/06/09 01:02:04;;;;;;;11.17;5.63;;;;;;;18.17;92.58;94448.47;5071698;28;20186;-44
2023/06/09 01:04:32;;;;;;;7.00;4.90;;;;;;;18.08;92.61;94450.41;5071390;28;20576;-45
2023/06/09 01:07:08;;;;;;;11.03;4.67;;;;;;;18.07;92.37;94448.81;5071189;28;20210;-44
2023/06/09 01:09:43;;;;;;;7.50;4.67;;;;;;;18.02;92.50;94457.16;5071619;28;20186;-44
2023/06/09 01:12:20;;;;;;;6.80;4.67;;;;;;;17.98;92.61;94445.59;5071161;28;20188;-44
2023/06/09 01:14:56;;;;;;;5.77;4.30;;;;;;;17.94;92.89;94441.78;5071033;28;20281;-45
2023/06/09 01:17:24;;;;;;;6.90;4.97;;;;;;;17.90;93.03;94437.97;5070083;28;20210;-43
2023/06/09 01:19:57;;;;;;;7.43;4.83;;;;;;;17.87;93.18;94437.53;5070983;28;20268;-45
2023/06/09 01:22:36;;;;;;;7.13;4.40;;;;;;;17.83;93.30;94442.28;5071554;28;20183;-45
2023/06/09 01:25:13;;;;;;;7.03;4.50;;;;;;;17.82;93.26;94447.66;5070871;28;20225;-43
2023/06/09 01:27:44;;;;;;;6.47;4.30;;;;;;;17.33;93.44;94376.06;5070499;28;20244;-44
2023/06/09 01:30:12;;;;;;;11.53;4.80;;;;;;;17.79;93.62;94446.25;5070658;28;20201;-44
2023/06/09 01:32:40;;;;;;;8.93;4.57;;;;;;;17.75;93.44;94457.97;5070776;28;20633;-45
2023/06/09 01:35:08;;;;;;;5.07;4.17;;;;;;;17.53;93.45;94414.00;5070258;28;20260;-45
2023/06/09 01:37:35;;;;;;;9.43;4.90;;;;;;;17.65;93.21;94439.34;5070524;28;20186;-44
2023/06/09 01:40:03;;;;;;;10.60;4.50;;;;;;;17.66;93.10;94465.03;5070747;28;20194;-43
2023/06/09 01:42:30;;;;;;;6.60;4.73;;;;;;;17.63;93.07;94467.19;5070889;28;20189;-45
2023/06/09 01:44:58;;;;;;;8.90;4.57;;;;;;;17.60;93.32;94467.56;5070855;28;20271;-44
2023/06/09 01:47:25;;;;;;;8.77;4.70;;;;;;;17.59;93.15;94463.38;5070615;28;20244;-43
2023/06/09 01:50:01;;;;;;;6.90;4.97;;;;;;;17.55;93.19;94461.16;5070244;28;20661;-43
2023/06/09 01:52:46;;;;;;;8.23;4.90;;;;;;;17.51;93.24;94459.13;5070496;28;20190;-44
2023/06/09 01:55:18;;;;;;;7.37;4.20;;;;;;;17.46;92.92;94451.13;5070659;28;20197;-44
2023/06/09 01:57:52;;;;;;;9.03;4.77;;;;;;;17.44;92.38;94455.66;5070457;28;20642;-43
2023/06/09 02:00:22;;;;;;;6.73;4.23;;;;;;;17.40;91.29;94457.84;5069715;28;20197;-43
2023/06/09 02:02:52;;;;;;;5.70;4.03;;;;;;;17.27;91.71;94448.19;5070717;28;20183;-45
2023/06/09 02:05:20;;;;;;;5.13;4.13;;;;;;;17.34;91.13;94457.78;5069784;28;20229;-45
2023/06/09 02:07:48;;;;;;;7.47;3.67;;;;;;;17.33;88.64;94458.75;5070570;28;20617;-44
2023/06/09 02:10:16;;;;;;;4.43;3.70;;;;;;;17.30;85.39;94452.16;5069557;28;20190;-45
2023/06/09 02:12:43;;;;;;;6.93;4.00;;;;;;;17.31;83.83;94453.75;5070420;28;20209;-43
2023/06/09 02:15:10;;;;;;;4.20;3.80;;;;;;;17.30;82.99;94459.91;5069884;28;20195;-43
2023/06/09 02:17:39;;;;;;;7.03;3.70;;;;;;;17.28;83.20;94454.94;5050149;28;20274;-42
2023/06/09 02:20:08;;;;;;;6.30;4.87;;;;;;;17.26;83.80;94456.91;5049601;28;20560;-46
2023/06/09 02:22:35;;;;;;;5.37;4.10;;;;;;;17.24;82.71;94450.34;5049661;28;20201;-44
2023/06/09 02:25:03;;;;;;;4.00;3.17;;;;;;;17.00;81.72;94425.63;5050118;28;20217;-44
2023/06/09 02:27:29;;;;;;;4.40;3.97;;;;;;;17.20;80.89;94456.84;5049534;28;20266;-44
2023/06/09 02:29:56;;;;;;;5.17;3.30;;;;;;;17.15;79.57;94454.81;5049898;28;20187;-45
2023/06/09 02:32:23;;;;;;;4.33;3.43;;;;;;;17.18;78.84;94457.03;5049334;28;20195;-44
2023/06/09 02:34:51;;;;;;;3.53;2.93;;;;;;;17.18;78.18;94461.38;5050039;28;20188;-44
2023/06/09 02:37:18;;;;;;;8.20;3.37;;;;;;;17.17;77.70;94460.59;5049943;28;20226;-43
2023/06/09 02:39:45;;;;;;;4.20;3.20;;;;;;;17.14;77.07;94460.97;5042275;28;20195;-43
2023/06/09 02:42:11;;;;;;;3.77;3.33;;;;;;;17.13;76.63;94458.56;5049278;28;20638;-48
2023/06/09 02:44:38;;;;;;;3.50;3.20;;;;;;;17.05;75.92;94460.28;5049799;28;20222;-47
2023/06/09 02:47:06;;;;;;;6.53;3.57;;;;;;;17.01;75.79;94461.66;5049327;28;20627;-44
2023/06/09 02:49:32;;;;;;;5.53;3.57;;;;;;;16.97;75.97;94450.06;5049484;28;20195;-43
2023/06/09 02:52:00;;;;;;;5.47;3.80;;;;;;;17.00;76.32;94457.44;5049038;28;20190;-43
2023/06/09 02:54:27;;;;;;;4.13;3.50;;;;;;;16.98;76.64;94462.00;5049190;28;20191;-44
2023/06/09 02:56:56;;;;;;;5.63;3.33;;;;;;;16.98;76.64;94472.34;5049734;28;20187;-44
2023/06/09 02:59:22;;;;;;;4.13;3.67;;;;;;;16.97;77.05;94464.78;5049270;28;20604;-46
2023/06/09 03:01:50;;;;;;;6.13;3.63;;;;;;;16.97;77.36;94472.53;5049310;28;20269;-46
2023/06/09 03:04:17;;;;;;;7.83;4.07;;;;;;;16.93;77.68;94456.59;5047760;28;20313;-44
2023/06/09 03:06:44;;;;;;;3.53;3.20;;;;;;;16.92;77.74;94446.41;5049479;28;20191;-44
2023/06/09 03:09:12;;;;;;;7.10;3.60;;;;;;;17.01;78.38;94463.41;5049310;28;20572;-44
2023/06/09 03:11:39;;;;;;;3.90;3.53;;;;;;;16.95;79.02;94456.41;5049476;28;20202;-44
2023/06/09 03:14:07;;;;;;;4.97;3.40;;;;;;;17.01;79.30;94459.06;5048711;28;20198;-44
2023/06/09 03:16:33;;;;;;;6.63;4.10;;;;;;;17.03;79.59;94459.66;5058774;28;20253;-44
2023/06/09 03:19:00;;;;;;;6.20;3.63;;;;;;;17.07;79.88;94454.13;5068182;28;20636;-43
2023/06/09 03:21:27;;;;;;;5.73;4.30;;;;;;;17.07;80.66;94448.97;5068507;28;20226;-43
2023/06/09 03:23:54;;;;;;;5.20;3.77;;;;;;;17.12;80.88;94450.00;5068389;28;20191;-44
2023/06/09 03:26:23;;;;;;;6.33;3.90;;;;;;;17.02;81.25;94423.69;5067849;28;20186;-42
2023/06/09 03:28:50;;;;;;;4.70;3.50;;;;;;;17.19;81.53;94453.47;5068138;28;20220;-44
2023/06/09 03:31:17;;;;;;;6.83;4.13;;;;;;;17.21;81.81;94455.88;5088379;28;20239;-44
2023/06/09 03:33:44;;;;;;;6.53;4.10;;;;;;;17.21;82.20;94450.69;5088251;28;20280;-44
2023/06/09 03:36:11;;;;;;;4.47;4.00;;;;;;;17.22;82.61;94449.69;5088633;28;20193;-46
2023/06/09 03:38:38;;;;;;;10.87;4.13;;;;;;;17.23;83.18;94451.31;5088807;28;20224;-44
2023/06/09 03:41:05;;;;;;;6.63;4.70;;;;;;;17.19;83.70;94453.47;5091750;28;20247;-44
2023/06/09 03:43:33;;;;;;;7.37;4.43;;;;;;;17.25;84.21;94454.50;5091650;28;20189;-44
2023/06/09 03:46:00;;;;;;;5.13;4.23;;;;;;;17.28;84.77;94457.53;5091346;28;20296;-45
2023/06/09 03:48:27;;;;;;;7.20;4.27;;;;;;;17.31;86.08;94461.50;5091670;28;20193;-44
2023/06/09 03:50:54;;;;;;;7.80;4.90;;;;;;;17.34;86.93;94462.94;5091754;28;20280;-44
2023/06/09 03:53:21;;;;;;;10.47;4.43;;;;;;;17.36;87.79;94466.13;5091495;28;20742;-44
2023/06/09 03:55:47;;;;;;;5.57;4.30;;;;;;;17.38;88.01;94467.56;5090027;28;20248;-43
2023/06/09 03:58:14;;;;;;;7.23;4.70;;;;;;;17.46;87.85;94459.69;5091668;28;20197;-44
2023/06/09 04:00:43;;;;;;;9.13;4.90;;;;;;;17.53;87.79;94463.13;5091485;28;20189;-44
2023/06/09 04:03:10;;;;;;;7.00;4.97;;;;;;;17.62;88.15;94465.59;5092056;28;20276;-45
2023/06/09 04:05:37;;;;;;;9.50;5.40;;;;;;;17.71;88.40;94464.47;5090724;28;20221;-44
2023/06/09 04:08:04;;;;;;;6.10;4.83;;;;;;;17.77;88.18;94468.91;5091771;28;20186;-44
2023/06/09 04:10:30;;;;;;;8.60;4.90;;;;;;;17.84;88.40;94468.97;5091267;28;20239;-45
2023/06/09 04:12:58;;;;;;;7.47;5.17;;;;;;;17.92;87.98;94468.81;5090790;28;20213;-43
2023/06/09 04:15:25;;;;;;;8.03;5.10;;;;;;;17.94;87.97;94466.84;5047665;28;1135511;-44
2023/06/09 04:17:53;;;;;;;9.03;5.57;;;;;;;17.92;85.13;94480.00;5091301;28;20629;-45
2023/06/09 04:20:22;;;;;;;5.00;4.50;;;;;;;17.90;83.83;94483.75;5092419;28;20186;-44
2023/06/09 04:22:49;;;;;;;11.03;5.80;;;;;;;17.77;82.66;94453.41;5090001;28;20188;-45
2023/06/09 04:25:16;;;;;;;8.93;7.13;;;;;;;17.94;81.50;94480.59;5092326;28;20217;-44
2023/06/09 04:27:43;;;;;;;7.03;6.33;;;;;;;17.99;81.18;94482.59;5092077;28;20239;-45
2023/06/09 04:30:11;;;;;;;7.63;6.37;;;;;;;18.04;81.01;94483.63;5092027;28;20231;-43
2023/06/09 04:32:38;;;;;;;14.77;7.50;;;;;;;18.12;80.40;94490.47;5090631;28;20194;-44
2023/06/09 04:35:08;;;;;;;7.30;5.80;;;;;;;18.18;78.05;94479.38;5092482;28;20213;-46
2023/06/09 04:37:36;;;;;;;9.13;5.93;;;;;;;18.23;77.56;94486.56;5091837;28;20211;-44
2023/06/09 04:40:03;;;;;;;8.73;6.57;;;;;;;18.27;77.06;94493.75;5092664;28;20213;-45
2023/06/09 04:42:30;;;;;;;8.90;6.87;;;;;;;18.28;77.21;94487.59;5091841;28;20190;-46
2023/06/09 04:44:56;;;;;;;7.57;5.83;;;;;;;18.38;77.39;94489.81;5091586;28;20295;-45
2023/06/09 04:47:24;;;;;;;6.77;5.93;;;;;;;18.51;76.25;94502.06;5091350;28;20291;-42
2023/06/09 04:49:53;;;;;;;7.97;4.37;;;;;;;18.61;73.21;94505.09;5092038;28;20610;-43
2023/06/09 04:52:21;;;;;;;5.47;4.13;;;;;;;18.63;72.72;94497.94;5091352;28;20200;-43
2023/06/09 04:54:49;;;;;;;12.23;5.23;;;;;;;18.65;73.27;94498.56;5083790;28;20216;-44
2023/06/09 04:57:17;;;;;;;7.27;4.70;;;;;;;18.72;73.41;94503.78;5069207;28;20195;-45
2023/06/09 04:59:45;;;;;;;9.00;4.80;;;;;;;18.79;73.19;94491.66;5080179;28;20185;-45
2023/06/09 05:02:12;;;;;;;8.23;5.03;;;;;;;18.85;72.87;94488.28;5089415;28;20698;-46
2023/06/09 05:04:38;;;;;;;6.93;5.37;;;;;;;18.90;72.41;94504.06;5088804;28;20225;-45
2023/06/09 05:07:06;;;;;;;10.60;5.50;;;;;;;18.92;72.53;94503.88;5087571;28;20208;-43
2023/06/09 05:09:34;;;;;;;5.63;4.27;;;;;;;19.03;72.88;94496.31;5084374;28;20194;-45
2023/06/09 05:12:01;;;;;;;9.10;5.27;;;;;;;19.34;73.03;94494.22;5092005;28;20573;-43
2023/06/09 05:14:28;;;;;;;8.13;5.10;;;;;;;19.82;69.75;94494.09;5091852;28;20596;-44
2023/06/09 05:16:55;;;;;;;8.60;4.90;;;;;;;20.06;67.22;94488.31;5091466;28;20233;-46
2023/06/09 05:19:22;;;;;;;10.80;4.53;;;;;;;20.23;66.97;94492.09;5091466;28;20653;-41
2023/06/09 05:21:48;;;;;;;9.30;5.13;;;;;;;20.43;65.41;94491.28;5091672;28;20228;-44
2023/06/09 05:24:15;;;;;;;6.63;4.67;;;;;;;20.65;64.52;94495.25;5091249;28;20197;-46
2023/06/09 05:26:45;;;;;;;6.07;4.47;;;;;;;20.94;64.33;94493.13;5091325;28;20193;-44
2023/06/09 05:29:12;;;;;;;6.88;4.72;;;;;;;21.38;64.07;94488.97;5091424;28;20657;-44
2023/06/09 05:31:38;;;;;;;8.50;4.32;;;;;;;21.93;63.80;94496.97;5096424;28;20236;-44
2023/06/09 05:34:05;;;;;;;7.20;4.20;;;;;;;22.42;62.66;94493.56;5097871;28;20197;-41
2023/06/09 05:36:32;;;;;;;9.38;5.93;;;;;;;22.89;61.90;94482.63;5097343;28;20201;-42
2023/06/09 05:39:00;;;;;;;6.68;4.78;;;;;;;23.23;58.71;94482.03;5090761;28;20189;-44
2023/06/09 05:41:27;;;;;;;7.85;4.82;;;;;;;23.25;58.87;94468.75;5095342;28;20228;-43
2023/06/09 05:43:57;;;;;;;7.90;4.88;;;;;;;23.74;58.86;94482.53;5105773;28;20204;-41
2023/06/09 05:46:24;;;;;;;12.35;5.28;;;;;;;24.06;57.16;94474.41;5082688;28;20232;-43
2023/06/09 05:48:52;;;;;;;9.23;5.35;;;;;;;24.38;56.09;94480.91;5089703;28;20643;-44
2023/06/09 05:51:19;;;;;;;8.80;4.97;;;;;;;24.63;54.52;94474.63;5089893;28;20276;-44
2023/06/09 05:53:46;;;;;;;10.85;4.97;;;;;;;24.65;53.54;94477.81;5100957;28;20178;-44
2023/06/09 05:56:16;;;;;;;6.82;4.57;;;;;;;24.68;54.52;94474.72;5089642;28;20263;-45
2023/06/09 05:58:44;;;;;;;10.45;4.72;;;;;;;24.94;55.10;94478.66;5093956;28;20187;-42
2023/06/09 06:01:13;;;;;;;9.35;4.38;;;;;;;25.36;54.64;94471.38;5077319;28;20201;-46
2023/06/09 06:03:41;;;;;;;11.27;4.40;;;;;;;25.72;50.40;94475.38;5092201;28;20209;-47
2023/06/09 06:06:09;;;;;;;6.07;4.75;;;;;;;25.83;51.06;94476.38;5105412;28;20225;-43
2023/06/09 06:08:35;;;;;;;10.07;4.65;;;;;;;26.10;49.00;94470.50;5091816;28;20268;-46
2023/06/09 06:11:02;;;;;;;5.22;4.00;;;;;;;26.11;48.39;94470.25;5089733;28;20209;-45
2023/06/09 06:13:29;;;;;;;7.00;4.22;;;;;;;26.08;48.78;94476.00;5095989;28;20194;-45
2023/06/09 06:15:59;;;;;;;8.00;3.85;;;;;;;26.23;49.50;94475.41;5086753;28;20229;-45
2023/06/09 06:18:27;;;;;;;4.88;4.30;;;;;;;26.52;47.69;94469.03;5093769;28;20193;-43
2023/06/09 06:20:54;;;;;;;7.38;4.60;;;;;;;26.38;47.80;94465.16;5095020;28;20198;-47
2023/06/09 06:23:21;;;;;;;8.05;4.18;;;;;;;26.36;47.56;94450.69;5093623;28;20197;-46
2023/06/09 06:25:48;;;;;;;8.00;4.15;;;;;;;26.63;47.65;94472.56;5089837;28;20221;-44
2023/06/09 06:28:15;;;;;;;10.45;4.30;;;;;;;26.87;47.85;94475.75;5083677;28;20213;-44
2023/06/09 06:30:43;;;;;;;6.40;4.03;;;;;;;27.15;47.70;94459.03;5088583;28;20260;-44
2023/06/09 06:33:10;;;;;;;4.22;3.83;;;;;;;27.47;46.72;94474.09;5090402;28;20220;-44
2023/06/09 06:35:38;;;;;;;7.53;4.32;;;;;;;27.51;44.75;94460.19;5093876;28;20234;-43
2023/06/09 06:38:05;;;;;;;7.70;3.88;;;;;;;27.37;45.29;94463.47;5095966;28;20190;-45
2023/06/09 06:40:32;;;;;;;5.68;3.75;;;;;;;27.54;46.36;94469.41;5094861;28;20193;-44
2023/06/09 06:42:59;;;;;;;9.57;4.47;;;;;;;27.77;44.72;94464.94;5080094;28;20248;-44
2023/06/09 06:45:27;;;;;;;6.88;4.28;;;;;;;27.35;44.72;94411.19;5096670;28;20214;-45
2023/06/09 06:47:53;;;;;;;7.57;4.25;;;;;;;27.45;44.17;94466.44;5091599;28;20227;-44
2023/06/09 06:50:21;;;;;;;7.65;4.82;;;;;;;27.14;45.92;94473.22;5100319;28;20639;-44
2023/06/09 06:52:49;;;;;;;8.55;4.80;;;;;;;27.02;46.73;94469.88;5076614;28;20202;-46
2023/06/09 06:55:16;;;;;;;6.80;4.28;;;;;;;27.14;45.22;94467.16;5085215;28;20208;-45
2023/06/09 06:57:43;;;;;;;6.93;4.15;;;;;;;27.32;45.65;94460.78;5087906;28;20197;-46
2023/06/09 07:00:14;;;;;;;11.85;5.25;;;;;;;27.58;45.57;94467.88;5088174;28;20193;-44
2023/06/09 07:02:41;;;;;;;6.65;4.38;;;;;;;27.70;43.62;94454.56;5103286;28;20209;-43
2023/06/09 07:05:09;;;;;;;10.23;4.25;;;;;;;27.36;44.59;94461.88;5103827;28;20208;-45
2023/06/09 07:07:36;;;;;;;8.73;4.13;;;;;;;27.00;44.75;94462.28;5096756;28;20221;-44
2023/06/09 07:10:07;;;;;;;9.05;4.90;;;;;;;26.84;45.42;94471.00;5090803;28;20279;-45
2023/06/09 07:12:34;;;;;;;11.32;4.35;;;;;;;26.70;45.73;94464.53;5094521;28;20264;-44
2023/06/09 07:15:01;;;;;;;8.50;4.38;;;;;;;27.02;46.55;94462.00;5095610;28;20221;-43
2023/06/09 07:17:28;;;;;;;5.60;4.20;;;;;;;27.35;44.80;94458.47;5088118;28;20222;-45
2023/06/09 07:19:55;;;;;;;9.88;4.88;;;;;;;27.29;44.79;94454.22;5096864;28;20193;-46
2023/06/09 07:22:22;;;;;;;7.65;5.00;;;;;;;27.15;44.99;94461.66;5100153;28;20216;-45
2023/06/09 07:24:49;;;;;;;9.43;4.57;;;;;;;27.15;45.54;94466.91;5096996;28;20203;-44
2023/06/09 07:27:17;;;;;;;5.88;3.90;;;;;;;27.25;45.73;94468.88;5080732;28;20599;-43
2023/06/09 07:29:44;;;;;;;9.07;4.13;;;;;;;27.52;46.07;94458.38;5083934;28;20297;-46
2023/06/09 07:32:11;;;;;;;8.63;4.15;;;;;;;27.91;45.72;94456.34;5093033;28;20568;-44
2023/06/09 07:34:38;;;;;;;7.63;3.92;;;;;;;28.11;45.28;94458.34;5100487;28;20284;-44
2023/06/09 07:37:06;;;;;;;6.82;4.60;;;;;;;28.42;44.66;94446.19;5082462;28;20222;-44
2023/06/09 07:39:35;;;;;;;8.88;5.03;;;;;;;28.57;43.88;94452.59;5108318;28;20211;-45
2023/06/09 07:42:02;;;;;;;9.32;4.57;;;;;;;28.70;43.96;94452.91;5078991;28;20193;-45
2023/06/09 07:44:30;;;;;;;8.02;4.00;;;;;;;28.78;43.93;94454.25;5087747;28;20185;-43
2023/06/09 07:46:57;;;;;;;6.72;4.38;;;;;;;28.84;43.82;94455.84;5096824;28;20302;-42
2023/06/09 07:49:24;;;;;;;8.68;4.90;;;;;;;28.90;43.98;94452.22;5093142;28;20186;-43
2023/06/09 07:51:52;;;;;;;11.25;4.68;;;;;;;28.83;43.36;94435.84;5087886;28;20193;-43
2023/06/09 07:54:20;;;;;;;8.73;4.57;;;;;;;28.93;43.36;94451.69;5094007;28;20181;-44
2023/06/09 07:56:49;;;;;;;10.00;4.90;;;;;;;29.04;43.46;94449.13;5088034;28;20273;-41
2023/06/09 07:59:16;;;;;;;12.82;5.15;;;;;;;29.01;43.45;94439.88;5088269;28;20205;-43
2023/06/09 08:01:44;;;;;;;8.52;4.15;;;;;;;29.00;43.03;94440.94;5086578;28;20680;-44
2023/06/09 08:04:11;;;;;;;5.15;4.20;;;;;;;29.08;43.95;94445.72;5082705;28;20235;-45
2023/06/09 08:06:39;;;;;;;6.82;4.75;;;;;;;29.28;43.44;94446.81;5087328;28;20201;-45
2023/06/09 08:09:06;;;;;;;10.20;4.28;;;;;;;29.52;42.67;94439.19;5069071;28;20194;-44
2023/06/09 08:11:33;;;;;;;8.50;4.60;;;;;;;29.49;43.15;94443.97;5096567;28;20281;-43
2023/06/09 08:14:00;;;;;;;7.70;4.22;;;;;;;29.62;43.59;94447.13;5077061;28;20192;-44
2023/06/09 08:16:26;;;;;;;7.70;3.90;;;;;;;29.73;41.67;94444.25;5075251;28;20214;-44
2023/06/09 08:18:55;;;;;;;5.18;3.90;;;;;;;29.50;43.11;94439.47;5090134;28;20685;-45
2023/06/09 08:21:22;;;;;;;6.32;3.88;;;;;;;29.54;43.57;94440.53;5086944;28;20681;-44
2023/06/09 08:23:49;;;;;;;6.30;4.20;;;;;;;29.65;42.60;94430.81;5083099;28;20269;-43
2023/06/09 08:26:15;;;;;;;4.18;3.78;;;;;;;29.69;42.50;94429.22;5090337;28;20270;-45
2023/06/09 08:28:42;;;;;;;6.00;3.75;;;;;;;29.81;41.99;94431.63;5079706;28;20183;-43
2023/06/09 08:31:09;;;;;;;7.72;4.32;;;;;;;29.94;42.35;94431.06;5091805;28;20253;-44
2023/06/09 08:33:37;;;;;;;4.43;3.47;;;;;;;30.03;41.51;94436.59;5110133;28;20684;-43
2023/06/09 08:36:05;;;;;;;4.22;3.83;;;;;;;30.00;41.36;94437.91;5092746;28;20604;-44
2023/06/09 08:38:33;;;;;;;6.47;3.58;;;;;;;29.80;41.62;94412.38;5088639;28;20185;-44
2023/06/09 08:41:06;;;;;;;4.30;3.70;;;;;;;29.85;42.69;94416.84;5102259;28;20702;-44
2023/06/09 08:43:33;;;;;;;6.47;3.55;;;;;;;30.12;42.26;94433.16;5089834;28;20565;-44
2023/06/09 08:46:01;;;;;;;3.78;3.38;;;;;;;30.18;41.79;94428.69;5078812;28;20225;-44
2023/06/09 08:48:30;;;;;;;7.95;3.90;;;;;;;30.07;41.45;94412.06;5094168;28;20284;-44
2023/06/09 08:50:58;;;;;;;8.90;3.63;;;;;;;30.17;41.97;94408.66;5103429;28;20205;-44
2023/06/09 08:53:27;;;;;;;6.18;4.00;;;;;;;30.16;41.07;94418.41;5082844;28;20194;-44
2023/06/09 08:55:54;;;;;;;7.18;4.25;;;;;;;30.02;41.40;94419.22;5085315;28;20296;-45
2023/06/09 08:58:21;;;;;;;5.20;4.22;;;;;;;29.62;42.02;94412.88;5089195;28;20224;-45
2023/06/09 09:00:49;;;;;;;11.98;4.07;;;;;;;29.42;42.95;94416.28;5091193;28;20308;-42
2023/06/09 09:03:17;;;;;;;7.38;3.72;;;;;;;29.43;42.05;94409.94;5094856;28;20272;-45
2023/06/09 09:05:44;;;;;;;4.28;3.88;;;;;;;29.19;42.26;94399.91;5101060;28;20708;-41
2023/06/09 09:08:11;;;;;;;6.72;3.92;;;;;;;29.10;43.23;94405.94;5091504;28;20194;-43
2023/06/09 09:10:41;;;;;;;7.22;4.20;;;;;;;29.12;42.84;94401.22;5085134;28;20190;-44
2023/06/09 09:13:09;;;;;;;8.82;4.78;;;;;;;28.98;43.47;94398.28;5098347;28;20243;-45
2023/06/09 09:15:37;;;;;;;5.32;4.15;;;;;;;28.89;43.02;94397.97;5095366;28;20309;-44
2023/06/09 09:18:07;;;;;;;6.95;4.18;;;;;;;28.91;43.04;94402.97;5078505;28;20661;-44
2023/06/09 09:20:36;;;;;;;7.03;4.30;;;;;;;29.04;42.82;94394.59;5093441;28;20208;-44
2023/06/09 09:23:05;;;;;;;4.75;4.20;;;;;;;29.03;43.50;94390.41;5092187;28;20195;-42
2023/06/09 09:25:32;;;;;;;5.43;3.80;;;;;;;28.94;42.54;94379.56;5087010;28;20194;-44
2023/06/09 09:28:05;;;;;;;7.00;3.67;;;;;;;28.98;42.92;94390.41;5101484;28;20185;-41
2023/06/09 09:30:51;;;;;;;4.38;3.83;;;;;;;28.93;42.74;94388.50;5104626;28;20192;-43
2023/06/09 09:33:20;;;;;;;7.25;4.50;;;;;;;28.82;43.25;94386.88;5099928;28;20197;-44
2023/06/09 09:35:49;;;;;;;5.53;3.97;;;;;;;28.81;43.89;94381.91;5075665;28;20210;-43
2023/06/09 09:38:18;;;;;;;8.32;4.50;;;;;;;28.86;43.30;94376.63;5088324;28;20194;-44
2023/06/09 09:40:46;;;;;;;6.22;4.43;;;;;;;28.92;43.05;94372.97;5099070;28;20668;-44
2023/06/09 09:43:15;;;;;;;6.35;3.72;;;;;;;28.86;43.38;94381.91;5089586;28;20641;-43
2023/06/09 09:45:46;;;;;;;9.60;4.05;;;;;;;28.74;43.80;94380.28;5089591;28;20725;-44
2023/06/09 09:48:15;;;;;;;7.47;6.38;;;;;;;28.64;43.46;94376.84;5086762;28;20307;-44
2023/06/09 09:50:43;;;;;;;6.93;4.55;;;;;;;28.68;43.74;94376.06;5086667;28;20197;-43
2023/06/09 09:53:10;;;;;;;7.35;5.03;;;;;;;28.79;43.39;94373.44;5097934;28;20197;-43
2023/06/09 09:55:39;;;;;;;6.82;4.72;;;;;;;28.80;42.70;94377.66;5095905;28;20190;-44
2023/06/09 09:58:08;;;;;;;5.47;4.13;;;;;;;28.54;43.54;94340.75;5089790;28;20201;-43
2023/06/09 10:00:38;;;;;;;6.65;3.75;;;;;;;28.80;43.37;94365.31;5092872;28;20250;-43
2023/06/09 10:03:09;;;;;;;4.60;4.00;;;;;;;28.84;43.54;94361.09;5100199;28;20196;-44
2023/06/09 10:05:43;;;;;;;9.85;4.28;;;;;;;28.70;42.05;94333.69;5099806;28;20192;-44
2023/06/09 10:08:11;;;;;;;9.48;4.10;;;;;;;28.72;42.79;94366.59;5100522;28;20229;-46
2023/06/09 10:10:40;;;;;;;4.03;3.25;;;;;;;28.68;40.92;94362.91;5088810;28;20603;-43
2023/06/09 10:13:08;;;;;;;4.57;3.42;;;;;;;28.59;41.82;94364.44;5089982;28;20198;-44
2023/06/09 10:15:36;;;;;;;4.07;3.78;;;;;;;28.67;41.79;94360.50;5089464;28;20217;-45
2023/06/09 10:18:06;;;;;;;7.18;3.40;;;;;;;28.77;40.80;94363.19;5089625;28;20197;-44
2023/06/09 10:20:33;;;;;;;3.53;3.25;;;;;;;28.66;40.38;94353.66;5085066;28;20189;-44
2023/06/09 10:23:00;;;;;;;10.63;4.03;;;;;;;28.61;41.15;94351.03;5089815;28;20182;-43
2023/06/09 10:25:28;;;;;;;4.97;3.60;;;;;;;28.54;41.00;94337.31;5086923;28;20182;-45
2023/06/09 10:27:55;;;;;;;7.57;3.33;;;;;;;28.67;41.44;94355.25;5087100;28;20228;-44
2023/06/09 10:30:22;;;;;;;4.43;3.70;;;;;;;28.65;41.64;94352.09;5089930;28;20186;-45
2023/06/09 10:32:58;;;;;;;6.40;3.53;;;;;;;28.56;41.02;94343.91;5088894;28;20198;-42
2023/06/09 10:35:28;;;;;;;4.80;3.22;;;;;;;28.57;40.96;94353.38;5087562;28;20195;-44
2023/06/09 10:37:58;;;;;;;4.55;2.83;;;;;;;28.62;39.70;94348.13;5089009;28;20196;-41
2023/06/09 10:40:30;;;;;;;3.58;3.28;;;;;;;28.70;40.65;94345.00;5089323;28;20731;-42
2023/06/09 10:43:30;;;;;;;3.90;3.50;;;;;;;28.81;40.74;94339.78;5089362;28;20201;-41
2023/06/09 10:45:58;;;;;;;4.07;3.55;;;;;;;28.81;40.13;94345.84;4985105;28;20312;-42
2023/06/09 10:48:48;;;;;;;6.40;4.32;;;;;;;28.64;40.74;94346.03;4987079;28;20204;-44
2023/06/09 10:51:40;;;;;;;5.55;4.20;;;;;;;28.53;41.11;94333.91;4987149;28;20201;-43
2023/06/09 10:54:22;;;;;;;6.20;4.72;;;;;;;28.62;41.57;94331.56;4986470;28;20205;-45
2023/06/09 10:56:53;;;;;;;6.80;4.40;;;;;;;28.76;41.70;94327.41;4985066;28;20208;-42
2023/06/09 11:02:44;;;;;;;11.57;4.35;;;;;;;28.64;42.07;94309.19;4983967;28;20197;-45
2023/06/09 11:05:13;;;;;;;4.75;3.75;;;;;;;28.72;40.59;94326.34;4987325;28;20900;-49
2023/06/09 11:07:46;;;;;;;7.10;3.58;;;;;;;28.61;40.38;94322.09;4987155;28;20236;-44
2023/06/09 11:10:28;;;;;;;5.93;3.67;;;;;;;28.49;40.51;94314.41;4987264;28;20227;-44
2023/06/09 11:12:56;;;;;;;7.53;2.80;;;;;;;28.51;39.97;94317.59;4984797;28;20220;-44
2023/06/09 11:15:25;;;;;;;3.80;3.25;;;;;;;28.55;40.09;94315.25;4987065;28;20224;-46
2023/06/09 11:17:52;;;;;;;4.20;3.53;;;;;;;28.57;39.83;94302.59;4998683;28;20724;-43
2023/06/09 11:20:22;;;;;;;2.85;2.65;;;;;;;28.60;37.39;94294.97;4998285;28;20324;-45
2023/06/09 11:23:04;;;;;;;2.80;2.35;;;;;;;28.83;36.75;94306.84;5020244;28;20198;-44
2023/06/09 11:25:35;;;;;;;16.23;3.08;;;;;;;28.90;37.07;94296.09;5060757;28;20614;-44
2023/06/09 11:28:22;;;;;;;5.60;2.83;;;;;;;29.00;38.35;94299.53;5063991;28;20230;-47
2023/06/09 11:31:04;;;;;;;3.05;2.63;;;;;;;29.12;38.64;94304.56;5049545;28;20191;-47
2023/06/09 11:33:43;;;;;;;3.03;2.72;;;;;;;29.28;37.25;94301.94;5056077;28;20189;-44
2023/06/09 11:36:16;;;;;;;5.35;2.92;;;;;;;29.46;35.99;94291.66;5068064;28;20215;-45
2023/06/09 11:38:43;;;;;;;3.13;2.50;;;;;;;29.64;35.78;94302.72;5049277;28;20278;-44
2023/06/09 11:41:12;;;;;;;4.15;2.78;;;;;;;29.66;37.77;94301.41;5048487;28;20199;-45